Terminal Aerodrome Forecast
Issued by NWS Charleston, WV

Current Version | Previous Version | Text Only | Print | Product List | Glossary Off
Versions: 1 2 3 4 5 6 7 8 9 10 11 12 13 14 15 16 17 18 19 20 21 22 23 24 25 26 27 28 29 30

876
FTUS41 KRLX 200543
TAFEKN
TAF
KEKN 200543Z 2006/2106 00000KT 4SM BR SCT050
     FM200800 00000KT 2SM BR SCT050
     FM200900 00000KT 1/2SM FG BKN001
     FM201100 00000KT 1/4SM FG VV001
     FM201200 00000KT 2SM BR BKN002
     FM201300 00000KT P6SM FEW250
     FM201700 26005KT P6SM SCT050
     FM210100 00000KT P6SM FEW250=

USA.gov is the U.S. government's official web portal to all federal, state and local government web resources and services.